ROMMA est une association bénévole à but non lucratif. Votre soutien est indispensable : ADHERER à ROMMA ou FAIRE un DON

Briord - (01, Ain)

Bugey (281 m)   Longitude: 05° 29' 13" E   Latitude: 45° 46' 37" N Station partenaire n°15
 

Détail journalier du     <<     >>

Température Precipitation Humidité Pression Vent Dir Rafale Dir. rafale Ensol.
Heure (°C) (mm) (%) (hPa) (km/h) (km/h) (min)
01:00 -0.2093103602E0
02:00 -0.7094103500---0
03:00 -0.6095103600---0
04:00 -0.2095103500---0
05:00 -0.809310352---11NNE0
06:00 -1.2094103500---0
07:00 -0.8094103500---0
08:00 -0.8094103500---0
09:00 -0.3094103500---0
10:00 0.2093103608NO0
11:00 0.6093103605NO0
12:00 1.6092103600---25
13:00 2.9090103500---20
14:00 5.7084103402ONO60
15:00 6.8078103403O60
16:00 7.5080103403OSO60
17:00 2.8090103400---15
18:00 1.6092103400---0
19:00 1.2093103400---0
20:00 0.8093103400---0
21:00 0.7093103400---0
22:00 0.2093103400---0
23:00 -0.2093103500---0
minuit -0.1094103500---0

Graphique du 30-12-2019

 

Serveur OMMA